createdAt,value
2019-03-12T00:00:13.830Z,2.68
2019-03-12T00:02:42.293Z,2.80
2019-03-12T00:05:10.760Z,2.57
2019-03-12T00:07:39.238Z,2.72
2019-03-12T00:10:09.138Z,2.86
2019-03-12T00:12:37.611Z,2.54
2019-03-12T00:15:07.896Z,2.79
2019-03-12T00:17:36.358Z,2.64
2019-03-12T00:20:06.572Z,2.64
2019-03-12T00:22:35.115Z,2.57
2019-03-12T00:25:03.694Z,2.77
2019-03-12T00:27:32.170Z,2.55
2019-03-12T00:30:00.642Z,2.50
2019-03-12T00:32:29.119Z,2.91
2019-03-12T00:34:57.583Z,2.85
2019-03-12T00:37:26.058Z,3.04
2019-03-12T00:39:54.575Z,2.57
2019-03-12T00:42:23.041Z,2.62
2019-03-12T00:44:51.987Z,2.81
2019-03-12T00:47:20.487Z,2.67
2019-03-12T00:49:48.979Z,2.81
2019-03-12T00:52:17.447Z,2.97
2019-03-12T00:54:45.942Z,3.30
2019-03-12T00:57:14.441Z,3.18
2019-03-12T00:59:42.951Z,2.99
2019-03-12T01:02:11.422Z,3.20
2019-03-12T01:04:39.885Z,3.20
2019-03-12T01:07:08.366Z,3.18
2019-03-12T01:09:36.897Z,3.27
2019-03-12T01:12:05.731Z,2.91
2019-03-12T01:14:34.191Z,3.18
2019-03-12T01:17:02.691Z,3.32
2019-03-12T01:19:31.183Z,3.08
2019-03-12T01:21:59.849Z,3.34
2019-03-12T01:24:28.398Z,3.55
2019-03-12T01:26:56.886Z,3.18
2019-03-12T01:29:25.427Z,3.39
2019-03-12T01:31:53.891Z,3.22
2019-03-12T01:34:22.354Z,3.48
2019-03-12T01:36:50.839Z,3.27
2019-03-12T01:39:19.321Z,3.23
2019-03-12T01:41:47.815Z,3.43
2019-03-12T01:44:16.282Z,3.20
2019-03-12T01:46:44.776Z,2.90
2019-03-12T01:49:13.242Z,3.02
2019-03-12T01:51:41.773Z,3.03
2019-03-12T01:54:10.238Z,3.29
2019-03-12T01:56:38.705Z,3.32
2019-03-12T01:59:07.196Z,3.49
2019-03-12T02:01:35.707Z,3.43
2019-03-12T02:04:04.323Z,3.45
2019-03-12T02:06:32.817Z,3.16
2019-03-12T02:09:01.287Z,3.08
2019-03-12T02:11:30.026Z,3.08
2019-03-12T02:13:58.520Z,3.12
2019-03-12T02:16:26.981Z,3.41
2019-03-12T02:18:55.486Z,3.58
2019-03-12T02:21:23.952Z,3.60
2019-03-12T02:23:52.417Z,3.46
2019-03-12T02:26:20.924Z,3.57
2019-03-12T02:28:49.387Z,3.43
2019-03-12T02:31:17.920Z,3.24
2019-03-12T02:33:46.385Z,3.41
2019-03-12T02:36:14.850Z,3.38
2019-03-12T02:38:43.343Z,3.05
2019-03-12T02:41:11.809Z,3.18
2019-03-12T02:43:40.285Z,3.11
2019-03-12T02:46:08.828Z,3.20
2019-03-12T02:48:37.289Z,3.35
2019-03-12T02:51:05.847Z,3.15
2019-03-12T02:53:34.317Z,3.13
2019-03-12T02:56:02.816Z,3.26
2019-03-12T02:58:31.279Z,2.96
2019-03-12T03:00:59.771Z,2.79
2019-03-12T03:03:28.247Z,2.98
2019-03-12T03:06:01.555Z,3.03
2019-03-12T03:08:31.679Z,2.90
2019-03-12T03:11:00.173Z,3.13
2019-03-12T03:13:28.764Z,2.98
2019-03-12T03:15:57.218Z,2.96
2019-03-12T03:18:25.738Z,2.89
2019-03-12T03:20:54.194Z,2.94
2019-03-12T03:23:22.696Z,2.57
2019-03-12T03:25:51.187Z,2.73
2019-03-12T03:28:19.671Z,3.06
2019-03-12T03:30:48.149Z,2.92
2019-03-12T03:33:16.665Z,3.19
2019-03-12T03:35:45.118Z,3.24
2019-03-12T03:38:13.659Z,3.27
2019-03-12T03:40:42.225Z,2.90
2019-03-12T03:43:10.687Z,3.24
2019-03-12T03:45:39.224Z,2.87
2019-03-12T03:48:07.740Z,2.84
2019-03-12T03:50:36.195Z,2.90
2019-03-12T03:53:04.766Z,3.03
2019-03-12T03:55:33.231Z,3.02
2019-03-12T03:58:01.803Z,2.94
2019-03-12T04:00:30.339Z,3.36
2019-03-12T04:02:58.839Z,2.88
2019-03-12T04:05:27.306Z,2.85
2019-03-12T04:07:55.867Z,3.50
2019-03-12T04:10:24.335Z,3.79
2019-03-12T04:12:52.820Z,3.82
2019-03-12T04:15:21.304Z,3.60
2019-03-12T04:17:49.866Z,3.83
2019-03-12T04:20:19.267Z,3.81
2019-03-12T04:22:47.942Z,3.90
2019-03-12T04:25:16.648Z,4.01
2019-03-12T04:27:45.138Z,4.05
2019-03-12T04:30:17.648Z,3.93
2019-03-12T04:32:46.315Z,3.95
2019-03-12T04:35:30.061Z,4.03
2019-03-12T04:37:58.555Z,4.03
2019-03-12T04:40:27.024Z,3.96
2019-03-12T04:42:55.501Z,4.10
2019-03-12T04:45:23.979Z,4.22
2019-03-12T04:47:52.474Z,4.09
2019-03-12T04:50:20.934Z,4.08
2019-03-12T04:52:49.426Z,4.01
2019-03-12T04:55:18.039Z,3.92
2019-03-12T04:57:46.568Z,3.97
2019-03-12T05:00:21.314Z,3.96
2019-03-12T05:02:49.781Z,4.01
2019-03-12T05:05:18.285Z,4.20
2019-03-12T05:07:46.756Z,4.15
2019-03-12T05:10:16.874Z,4.25
2019-03-12T05:12:45.409Z,4.29
2019-03-12T05:15:16.191Z,4.21
2019-03-12T05:17:45.523Z,4.14
2019-03-12T05:20:15.898Z,4.13
2019-03-12T05:22:44.429Z,4.20
2019-03-12T05:25:14.273Z,4.01
2019-03-12T05:27:43.195Z,4.00
2019-03-12T05:30:17.707Z,4.05
2019-03-12T05:32:46.232Z,4.24
2019-03-12T05:35:14.902Z,4.03
2019-03-12T05:37:43.631Z,3.84
2019-03-12T05:40:13.948Z,3.95
2019-03-12T05:42:42.512Z,4.12
2019-03-12T05:45:12.919Z,3.99
2019-03-12T05:47:41.420Z,4.08
2019-03-12T05:50:12.568Z,3.84
2019-03-12T05:52:41.067Z,3.73
2019-03-12T05:55:11.173Z,3.90
2019-03-12T05:57:39.672Z,3.85
2019-03-12T06:00:11.416Z,3.88
2019-03-12T06:02:39.177Z,4.03
2019-03-12T06:05:08.283Z,4.04
2019-03-12T06:07:36.775Z,3.78
2019-03-12T06:10:08.146Z,3.46
2019-03-12T06:12:36.640Z,3.38
2019-03-12T06:15:07.991Z,3.27
2019-03-12T06:17:36.522Z,3.74
2019-03-12T06:20:08.033Z,3.61
2019-03-12T06:22:36.512Z,3.66
2019-03-12T06:25:05.846Z,4.03
2019-03-12T06:27:34.304Z,3.97
2019-03-12T06:30:02.872Z,3.75
2019-03-12T06:32:33.002Z,3.84
2019-03-12T06:35:03.133Z,3.68
2019-03-12T06:37:51.271Z,3.93
2019-03-12T06:40:21.454Z,4.17
2019-03-12T06:42:57.311Z,3.86
2019-03-12T06:45:27.477Z,3.75
2019-03-12T06:48:15.376Z,3.55
2019-03-12T06:50:45.490Z,3.87
2019-03-12T06:53:15.633Z,3.83
2019-03-12T06:56:01.931Z,3.87
2019-03-12T06:58:48.510Z,3.80
2019-03-12T07:01:33.873Z,3.55
2019-03-12T07:04:13.087Z,3.48
2019-03-12T07:06:49.148Z,3.58
2019-03-12T07:09:35.613Z,3.55
2019-03-12T07:12:08.507Z,3.83
2019-03-12T07:14:54.943Z,3.84
2019-03-12T07:17:25.060Z,3.91
2019-03-12T07:20:13.291Z,3.75
2019-03-12T07:22:46.565Z,3.69
2019-03-12T07:25:19.476Z,3.66
2019-03-12T07:27:58.538Z,3.70
2019-03-12T07:30:34.458Z,3.15
2019-03-12T07:33:10.093Z,3.48
2019-03-12T07:35:40.204Z,3.10
2019-03-12T07:38:28.751Z,3.10
2019-03-12T07:41:23.580Z,3.42
2019-03-12T07:43:54.950Z,3.43
2019-03-12T07:46:25.042Z,3.87
2019-03-12T07:48:58.752Z,3.30
2019-03-12T07:51:44.813Z,3.53
2019-03-12T07:54:14.926Z,3.75
2019-03-12T07:56:45.034Z,3.47
2019-03-12T07:59:14.994Z,3.48
2019-03-12T08:01:47.760Z,3.40
2019-03-12T08:04:32.905Z,3.90
2019-03-12T08:07:08.809Z,3.94
2019-03-12T08:09:50.905Z,3.26
2019-03-12T08:12:34.413Z,3.50
2019-03-12T08:15:05.309Z,3.69
2019-03-12T08:17:51.815Z,3.56
2019-03-12T08:20:21.951Z,3.79
2019-03-12T08:22:52.060Z,3.74
2019-03-12T08:25:38.360Z,3.84
2019-03-12T08:28:11.018Z,3.90
2019-03-12T08:30:53.324Z,4.23
2019-03-12T08:33:25.897Z,4.66
2019-03-12T08:35:58.820Z,4.49
2019-03-12T08:38:46.556Z,4.27
2019-03-12T08:41:16.769Z,3.89
2019-03-12T08:43:51.342Z,3.96
2019-03-12T08:46:22.313Z,4.15
2019-03-12T08:48:55.493Z,3.93
2019-03-12T08:51:25.620Z,4.22
2019-03-12T08:54:13.788Z,4.23
2019-03-12T08:56:52.880Z,4.35
2019-03-12T08:59:39.200Z,4.61
2019-03-12T09:02:15.310Z,4.66
2019-03-12T09:04:45.415Z,4.43
2019-03-12T09:07:21.490Z,5.17
2019-03-12T09:09:51.601Z,5.26
2019-03-12T09:12:21.734Z,5.80
2019-03-12T09:15:10.045Z,5.67
2019-03-12T09:17:40.179Z,6.38
2019-03-12T09:20:11.924Z,6.23
2019-03-12T09:22:47.503Z,6.41
2019-03-12T09:25:26.792Z,6.07
2019-03-12T09:28:15.146Z,5.91
2019-03-12T09:30:51.278Z,5.57
2019-03-12T09:33:24.091Z,5.47
2019-03-12T09:36:03.001Z,5.19
2019-03-12T09:38:42.382Z,5.62
2019-03-12T09:41:15.199Z,5.08
2019-03-12T09:43:48.375Z,5.15
2019-03-12T09:46:21.370Z,5.69
2019-03-12T09:48:54.498Z,6.70
2019-03-12T09:51:24.681Z,7.01
2019-03-12T09:54:11.126Z,6.26
2019-03-12T09:56:50.367Z,5.75
2019-03-12T09:59:36.928Z,5.53
2019-03-12T10:02:21.969Z,5.85
2019-03-12T10:04:54.810Z,5.74
2019-03-12T10:07:24.917Z,5.75
2019-03-12T10:09:58.240Z,5.62
2019-03-12T10:12:31.020Z,5.88
2019-03-12T10:15:17.587Z,5.62
2019-03-12T10:18:02.455Z,5.28
2019-03-12T10:20:31.132Z,5.18
2019-03-12T10:23:06.956Z,5.38
2019-03-12T10:25:52.993Z,6.47
2019-03-12T10:28:34.881Z,7.17
2019-03-12T10:31:10.822Z,8.40
2019-03-12T10:33:57.490Z,7.87
2019-03-12T10:36:30.795Z,6.55
2019-03-12T10:39:22.994Z,6.05
2019-03-12T10:41:56.070Z,7.15
2019-03-12T10:44:44.291Z,6.96
2019-03-12T10:47:14.395Z,7.85
2019-03-12T10:49:42.854Z,8.21
2019-03-12T10:52:11.345Z,8.76
2019-03-12T10:54:39.804Z,9.23
2019-03-12T10:57:08.389Z,9.39
2019-03-12T10:59:36.857Z,9.52
2019-03-12T11:02:05.487Z,10.12
2019-03-12T11:04:33.951Z,9.38
2019-03-12T11:07:15.553Z,8.98
2019-03-12T11:09:32.678Z,8.73
2019-03-12T11:12:01.098Z,8.93
2019-03-12T11:14:29.582Z,9.67
2019-03-12T11:16:58.048Z,9.67
2019-03-12T11:19:26.515Z,9.21
2019-03-12T11:21:55.007Z,9.98
2019-03-12T11:24:23.500Z,9.55
2019-03-12T11:26:52.004Z,9.00
2019-03-12T11:29:20.467Z,8.86
2019-03-12T11:31:48.934Z,8.11
2019-03-12T11:34:17.434Z,8.52
2019-03-12T11:36:47.149Z,8.34
2019-03-12T11:39:15.690Z,7.97
2019-03-12T11:41:44.163Z,8.14
2019-03-12T11:44:12.888Z,8.74
2019-03-12T11:46:45.332Z,8.09
2019-03-12T11:49:11.789Z,8.42
2019-03-12T11:51:40.276Z,8.49
2019-03-12T11:54:10.009Z,8.46
2019-03-12T11:56:38.834Z,8.64
2019-03-12T11:59:07.291Z,9.31
2019-03-12T12:01:35.763Z,9.46
2019-03-12T12:04:04.371Z,9.25
2019-03-12T12:06:32.970Z,9.53
2019-03-12T12:09:01.530Z,8.87
2019-03-12T12:11:29.997Z,9.38
2019-03-12T12:13:58.635Z,8.44
2019-03-12T12:16:27.108Z,8.86
2019-03-12T12:18:55.582Z,9.82
2019-03-12T12:21:24.084Z,9.93
2019-03-12T12:23:52.547Z,10.42
2019-03-12T12:26:21.023Z,10.43
2019-03-12T12:28:49.494Z,9.65
2019-03-12T12:31:17.972Z,8.82
2019-03-12T12:33:46.460Z,9.64
2019-03-12T12:36:15.078Z,10.13
2019-03-12T12:38:43.669Z,10.27
2019-03-12T12:41:12.161Z,9.89
2019-03-12T12:43:40.646Z,9.68
2019-03-12T12:46:09.129Z,9.90
2019-03-12T12:48:37.617Z,9.11
2019-03-12T12:51:06.143Z,8.76
2019-03-12T12:53:35.096Z,8.49
2019-03-12T12:56:03.733Z,8.85
2019-03-12T12:58:32.767Z,8.74
2019-03-12T13:01:01.313Z,8.48
2019-03-12T13:03:29.855Z,8.21
2019-03-12T13:05:58.393Z,8.52
2019-03-12T13:08:26.881Z,8.41
2019-03-12T13:10:55.408Z,8.68
2019-03-12T13:13:23.914Z,8.69
2019-03-12T13:15:52.357Z,8.37
2019-03-12T13:18:20.856Z,8.19
2019-03-12T13:20:49.329Z,8.52
2019-03-12T13:23:17.854Z,8.44
2019-03-12T13:25:46.339Z,8.60
2019-03-12T13:28:14.889Z,8.34
2019-03-12T13:30:43.429Z,8.30
2019-03-12T13:33:11.974Z,8.26
2019-03-12T13:35:40.445Z,8.69
2019-03-12T13:38:08.980Z,8.64
2019-03-12T13:40:37.454Z,8.46
2019-03-12T13:43:06.013Z,8.34
2019-03-12T13:45:34.529Z,8.95
2019-03-12T13:48:03.455Z,9.38
2019-03-12T13:50:32.230Z,9.28
2019-03-12T13:53:00.807Z,9.32
2019-03-12T13:55:29.387Z,9.28
2019-03-12T13:57:57.902Z,8.98
2019-03-12T14:00:28.708Z,8.92
2019-03-12T14:02:57.317Z,8.76
2019-03-12T14:05:25.860Z,8.12
2019-03-12T14:07:54.461Z,8.53
2019-03-12T14:10:23.970Z,9.48
2019-03-12T14:12:53.854Z,9.21
2019-03-12T14:15:33.446Z,9.42
2019-03-12T14:18:02.103Z,9.07
2019-03-12T14:20:45.245Z,8.94
2019-03-12T14:23:16.524Z,8.97
2019-03-12T14:25:45.544Z,9.28
2019-03-12T14:28:14.238Z,9.64
2019-03-12T14:30:42.733Z,10.02
2019-03-12T14:33:11.575Z,9.70
2019-03-12T14:35:50.882Z,9.62
2019-03-12T14:38:10.589Z,9.46
2019-03-12T14:40:39.238Z,9.48
2019-03-12T14:43:08.037Z,8.70
2019-03-12T14:45:38.356Z,8.69
2019-03-12T14:48:08.398Z,8.73
2019-03-12T14:50:36.884Z,8.15
2019-03-12T14:53:20.986Z,7.92
2019-03-12T14:55:38.923Z,8.15
2019-03-12T14:58:07.480Z,8.24
2019-03-12T15:00:36.008Z,8.83
2019-03-12T15:03:04.507Z,8.71
2019-03-12T15:05:33.311Z,8.74
2019-03-12T15:08:01.864Z,8.86
2019-03-12T15:10:30.409Z,9.01
2019-03-12T15:12:58.907Z,8.81
2019-03-12T15:15:27.385Z,8.95
2019-03-12T15:17:55.889Z,9.03
2019-03-12T15:20:24.389Z,9.27
2019-03-12T15:22:52.874Z,9.61
2019-03-12T15:25:21.368Z,9.35
2019-03-12T15:27:49.831Z,9.47
2019-03-12T15:30:20.950Z,9.24
2019-03-12T15:32:49.477Z,9.19
2019-03-12T15:35:18.009Z,8.91
2019-03-12T15:37:46.462Z,8.08
2019-03-12T15:40:15.293Z,8.23
2019-03-12T15:42:43.758Z,8.59
2019-03-12T15:45:13.992Z,8.46
2019-03-12T15:47:42.535Z,8.42
2019-03-12T15:50:13.532Z,8.67
2019-03-12T15:52:42.027Z,8.13
2019-03-12T15:55:10.620Z,7.97
2019-03-12T15:57:39.167Z,8.27
2019-03-12T16:00:10.681Z,8.60
2019-03-12T16:02:39.172Z,8.32
2019-03-12T16:05:08.891Z,8.21
2019-03-12T16:07:37.433Z,8.14
2019-03-12T16:10:14.202Z,7.80
2019-03-12T16:12:42.707Z,7.60
2019-03-12T16:15:12.939Z,7.62
2019-03-12T16:17:41.415Z,7.38
2019-03-12T16:20:15.648Z,7.46
2019-03-12T16:22:44.851Z,7.31
2019-03-12T16:25:13.662Z,7.57
2019-03-12T16:27:42.117Z,7.45
2019-03-12T16:30:13.795Z,7.75
2019-03-12T16:32:42.290Z,7.58
2019-03-12T16:35:10.984Z,8.00
2019-03-12T16:37:39.523Z,7.69
2019-03-12T16:40:15.888Z,7.38
2019-03-12T16:42:44.417Z,7.49
2019-03-12T16:45:14.537Z,7.85
2019-03-12T16:47:43.006Z,7.74
2019-03-12T16:50:14.185Z,7.36
2019-03-12T16:52:42.645Z,7.17
2019-03-12T16:55:13.245Z,6.82
2019-03-12T16:57:41.809Z,6.99
2019-03-12T17:00:18.301Z,7.15
2019-03-12T17:02:47.108Z,6.93
2019-03-12T17:05:15.799Z,6.80
2019-03-12T17:07:44.523Z,6.57
2019-03-12T17:10:21.146Z,6.62
2019-03-12T17:12:49.609Z,6.66
2019-03-12T17:15:26.181Z,6.38
2019-03-12T17:17:54.697Z,6.11
2019-03-12T17:20:23.209Z,6.02
2019-03-12T17:22:51.685Z,6.10
2019-03-12T17:25:20.275Z,6.25
2019-03-12T17:27:51.402Z,6.47
2019-03-12T17:30:24.860Z,6.37
2019-03-12T17:32:53.421Z,6.03
2019-03-12T17:35:33.919Z,5.87
2019-03-12T17:38:02.487Z,5.84
2019-03-12T17:40:31.024Z,5.60
2019-03-12T17:42:59.520Z,5.64
2019-03-12T17:45:27.988Z,5.74
2019-03-12T17:47:56.520Z,5.69
2019-03-12T17:50:25.155Z,5.70
2019-03-12T17:52:53.622Z,5.67
2019-03-12T17:55:22.157Z,5.75
2019-03-12T17:57:51.216Z,5.70
2019-03-12T18:00:30.035Z,5.62
2019-03-12T18:02:58.648Z,5.55
2019-03-12T18:05:27.179Z,5.21
2019-03-12T18:07:55.724Z,5.28
2019-03-12T18:10:24.203Z,5.37
2019-03-12T18:12:52.810Z,5.55
2019-03-12T18:15:21.964Z,5.29
2019-03-12T18:17:50.495Z,5.06
2019-03-12T18:20:22.862Z,5.16
2019-03-12T18:22:51.329Z,5.08
2019-03-12T18:25:31.542Z,5.13
2019-03-12T18:28:00.041Z,5.00
2019-03-12T18:30:28.501Z,5.00
2019-03-12T18:32:57.161Z,5.03
2019-03-12T18:35:26.845Z,5.00
2019-03-12T18:37:55.379Z,4.76
2019-03-12T18:40:30.270Z,5.08
2019-03-12T18:42:58.793Z,5.37
2019-03-12T18:45:31.941Z,5.49
2019-03-12T18:48:00.443Z,5.78
2019-03-12T18:50:29.056Z,5.83
2019-03-12T18:52:57.740Z,5.84
2019-03-12T18:55:38.111Z,5.67
2019-03-12T18:58:07.196Z,5.82
2019-03-12T19:00:36.700Z,5.50
2019-03-12T19:03:05.229Z,5.61
2019-03-12T19:05:33.742Z,5.60
2019-03-12T19:08:02.335Z,5.29
2019-03-12T19:10:30.914Z,5.50
2019-03-12T19:12:59.514Z,5.41
2019-03-12T19:15:28.128Z,5.19
2019-03-12T19:17:56.746Z,5.28
2019-03-12T19:20:25.382Z,5.49
2019-03-12T19:22:53.894Z,5.41
2019-03-12T19:25:25.468Z,5.44
2019-03-12T19:27:59.736Z,5.52
2019-03-12T19:30:25.148Z,5.50
2019-03-12T19:33:10.435Z,5.45
2019-03-12T19:35:38.916Z,5.39
2019-03-12T19:38:07.619Z,5.20
2019-03-12T19:40:41.918Z,5.31
2019-03-12T19:43:10.619Z,5.26
2019-03-12T19:45:39.280Z,5.28
2019-03-12T19:48:07.888Z,5.49
2019-03-12T19:50:36.638Z,5.35
2019-03-12T19:53:06.839Z,5.50
2019-03-12T19:55:50.397Z,5.41
2019-03-12T19:58:19.032Z,5.24
2019-03-12T20:00:48.436Z,4.80
2019-03-12T20:03:17.086Z,4.82
2019-03-12T20:05:45.685Z,4.78
2019-03-12T20:08:14.255Z,4.81
2019-03-12T20:11:13.797Z,4.79
2019-03-12T20:14:02.022Z,4.56
2019-03-12T20:16:36.177Z,4.18
2019-03-12T20:19:24.254Z,4.07
2019-03-12T20:22:18.425Z,3.98
2019-03-12T20:25:23.349Z,3.96
2019-03-12T20:28:29.690Z,4.12
2019-03-12T20:31:20.554Z,3.75
2019-03-12T20:34:14.626Z,3.78
2019-03-12T20:37:15.077Z,3.98
2019-03-12T20:40:12.282Z,4.01
2019-03-12T20:43:17.257Z,3.87
2019-03-12T20:46:22.018Z,3.78
2019-03-12T20:49:11.593Z,3.46
2019-03-12T20:52:16.777Z,3.56
2019-03-12T20:55:21.676Z,3.65
2019-03-12T20:58:12.906Z,3.58
2019-03-12T21:01:02.717Z,3.67
2019-03-12T21:03:37.021Z,3.93
2019-03-12T21:06:31.377Z,3.54
2019-03-12T21:09:20.361Z,3.73
2019-03-12T21:12:03.823Z,3.54
2019-03-12T21:14:50.509Z,3.60
2019-03-12T21:17:22.027Z,3.66
2019-03-12T21:20:16.596Z,3.65
2019-03-12T21:23:00.252Z,3.83
2019-03-12T21:25:37.363Z,3.46
2019-03-12T21:28:14.478Z,3.39
2019-03-12T21:30:43.122Z,3.41
2019-03-12T21:33:15.607Z,3.57
2019-03-12T21:35:43.122Z,3.69
2019-03-12T21:38:11.580Z,3.76
2019-03-12T21:40:40.109Z,3.80
2019-03-12T21:43:08.574Z,3.58
2019-03-12T21:45:37.291Z,3.45
2019-03-12T21:48:05.860Z,3.69
2019-03-12T21:50:34.397Z,3.50
2019-03-12T21:53:02.879Z,3.35
2019-03-12T21:55:31.373Z,3.22
2019-03-12T21:57:59.948Z,3.32
2019-03-12T22:00:28.516Z,3.45
2019-03-12T22:02:57.051Z,3.61
2019-03-12T22:05:27.196Z,3.41
2019-03-12T22:07:55.692Z,3.67
2019-03-12T22:10:24.157Z,3.24
2019-03-12T22:12:52.684Z,3.24
2019-03-12T22:15:21.151Z,3.14
2019-03-12T22:17:51.129Z,3.31
2019-03-12T22:20:19.601Z,3.39
2019-03-12T22:22:58.585Z,3.29
2019-03-12T22:25:27.063Z,3.13
2019-03-12T22:27:55.556Z,3.29
2019-03-12T22:30:25.660Z,3.32
2019-03-12T22:32:54.213Z,3.64
2019-03-12T22:35:22.824Z,3.41
2019-03-12T22:37:51.390Z,3.62
2019-03-12T22:40:19.858Z,3.48
2019-03-12T22:42:48.351Z,3.48
2019-03-12T22:45:17.081Z,3.56
2019-03-12T22:47:45.542Z,3.48
2019-03-12T22:50:15.877Z,3.63
2019-03-12T22:52:44.337Z,3.67
2019-03-12T22:55:14.073Z,3.73
2019-03-12T22:57:42.711Z,3.64
2019-03-12T23:00:19.573Z,3.46
2019-03-12T23:02:48.027Z,3.32
2019-03-12T23:05:16.815Z,3.21
2019-03-12T23:07:46.714Z,3.15
2019-03-12T23:10:17.351Z,3.06
2019-03-12T23:12:46.153Z,3.03
2019-03-12T23:15:19.654Z,3.28
2019-03-12T23:17:48.267Z,3.37
2019-03-12T23:20:19.721Z,3.40
2019-03-12T23:22:51.784Z,3.26
2019-03-12T23:25:18.766Z,3.26
2019-03-12T23:27:47.379Z,3.22
2019-03-12T23:30:18.301Z,3.29
2019-03-12T23:32:46.889Z,3.43
2019-03-12T23:35:15.568Z,3.23
2019-03-12T23:37:44.252Z,3.53
2019-03-12T23:40:19.427Z,3.25
2019-03-12T23:42:48.059Z,3.25
2019-03-12T23:45:17.834Z,3.31
2019-03-12T23:47:49.965Z,3.51
2019-03-12T23:50:18.379Z,3.60
2019-03-12T23:52:47.057Z,3.51
2019-03-12T23:55:17.983Z,3.42
2019-03-12T23:57:46.858Z,3.50
